sensor_id;sensor_type;location;lat;lon;timestamp;P1;durP1;ratioP1;P2;durP2;ratioP2
8716;SDS011;4395;48.554;8.820;2022-11-15T00:00:23;5.82;;;2.60;;
8716;SDS011;4395;48.554;8.820;2022-11-15T00:02:46;3.67;;;2.78;;
8716;SDS011;4395;48.554;8.820;2022-11-15T00:05:07;4.55;;;3.00;;
8716;SDS011;4395;48.554;8.820;2022-11-15T00:07:28;3.10;;;2.90;;
8716;SDS011;4395;48.554;8.820;2022-11-15T00:10:10;2.95;;;2.75;;
8716;SDS011;4395;48.554;8.820;2022-11-15T00:12:31;4.03;;;2.97;;
8716;SDS011;4395;48.554;8.820;2022-11-15T00:14:52;6.90;;;2.92;;
8716;SDS011;4395;48.554;8.820;2022-11-15T00:17:13;2.58;;;2.25;;
8716;SDS011;4395;48.554;8.820;2022-11-15T00:19:36;3.08;;;2.78;;
8716;SDS011;4395;48.554;8.820;2022-11-15T00:21:57;3.00;;;2.50;;
8716;SDS011;4395;48.554;8.820;2022-11-15T00:24:18;2.92;;;2.60;;
8716;SDS011;4395;48.554;8.820;2022-11-15T00:26:39;2.25;;;2.05;;
8716;SDS011;4395;48.554;8.820;2022-11-15T00:29:00;3.47;;;2.58;;
8716;SDS011;4395;48.554;8.820;2022-11-15T00:31:21;4.88;;;2.60;;
8716;SDS011;4395;48.554;8.820;2022-11-15T00:33:43;7.32;;;3.90;;
8716;SDS011;4395;48.554;8.820;2022-11-15T00:36:07;6.13;;;4.72;;
8716;SDS011;4395;48.554;8.820;2022-11-15T00:38:30;5.80;;;4.20;;
8716;SDS011;4395;48.554;8.820;2022-11-15T00:40:52;4.22;;;3.28;;
8716;SDS011;4395;48.554;8.820;2022-11-15T00:43:14;5.05;;;3.40;;
8716;SDS011;4395;48.554;8.820;2022-11-15T00:45:35;4.57;;;3.17;;
8716;SDS011;4395;48.554;8.820;2022-11-15T00:47:57;3.10;;;2.80;;
8716;SDS011;4395;48.554;8.820;2022-11-15T00:50:18;4.93;;;3.47;;
8716;SDS011;4395;48.554;8.820;2022-11-15T00:52:41;4.57;;;4.05;;
8716;SDS011;4395;48.554;8.820;2022-11-15T00:55:02;9.40;;;5.88;;
8716;SDS011;4395;48.554;8.820;2022-11-15T00:57:24;4.70;;;3.58;;
8716;SDS011;4395;48.554;8.820;2022-11-15T00:59:45;3.10;;;2.80;;
8716;SDS011;4395;48.554;8.820;2022-11-15T01:02:06;3.53;;;3.22;;
8716;SDS011;4395;48.554;8.820;2022-11-15T01:04:28;4.30;;;3.33;;
8716;SDS011;4395;48.554;8.820;2022-11-15T01:06:49;4.15;;;3.40;;
8716;SDS011;4395;48.554;8.820;2022-11-15T01:09:12;6.40;;;3.22;;
8716;SDS011;4395;48.554;8.820;2022-11-15T01:11:34;3.22;;;2.67;;
8716;SDS011;4395;48.554;8.820;2022-11-15T01:13:55;4.30;;;3.15;;
8716;SDS011;4395;48.554;8.820;2022-11-15T01:16:17;6.97;;;4.10;;
8716;SDS011;4395;48.554;8.820;2022-11-15T01:18:39;6.28;;;4.97;;
8716;SDS011;4395;48.554;8.820;2022-11-15T01:21:04;5.95;;;3.90;;
8716;SDS011;4395;48.554;8.820;2022-11-15T01:23:26;4.88;;;3.40;;
8716;SDS011;4395;48.554;8.820;2022-11-15T01:25:50;4.85;;;3.17;;
8716;SDS011;4395;48.554;8.820;2022-11-15T01:28:11;4.97;;;3.35;;
8716;SDS011;4395;48.554;8.820;2022-11-15T01:30:32;3.40;;;3.10;;
8716;SDS011;4395;48.554;8.820;2022-11-15T01:32:53;5.93;;;4.18;;
8716;SDS011;4395;48.554;8.820;2022-11-15T01:35:15;5.43;;;3.35;;
8716;SDS011;4395;48.554;8.820;2022-11-15T01:37:36;4.70;;;2.80;;
8716;SDS011;4395;48.554;8.820;2022-11-15T01:39:57;5.20;;;2.90;;
8716;SDS011;4395;48.554;8.820;2022-11-15T01:42:20;4.30;;;2.90;;
8716;SDS011;4395;48.554;8.820;2022-11-15T01:44:42;5.22;;;3.30;;
8716;SDS011;4395;48.554;8.820;2022-11-15T01:47:06;4.03;;;3.30;;
8716;SDS011;4395;48.554;8.820;2022-11-15T01:49:32;4.45;;;2.83;;
8716;SDS011;4395;48.554;8.820;2022-11-15T01:51:56;3.53;;;3.22;;
8716;SDS011;4395;48.554;8.820;2022-11-15T01:54:18;4.18;;;2.70;;
8716;SDS011;4395;48.554;8.820;2022-11-15T01:56:43;3.42;;;2.75;;
8716;SDS011;4395;48.554;8.820;2022-11-15T01:59:10;6.50;;;2.45;;
8716;SDS011;4395;48.554;8.820;2022-11-15T02:01:32;3.13;;;2.20;;
8716;SDS011;4395;48.554;8.820;2022-11-15T02:03:56;2.50;;;2.30;;
8716;SDS011;4395;48.554;8.820;2022-11-15T02:06:20;2.78;;;2.47;;
8716;SDS011;4395;48.554;8.820;2022-11-15T02:08:42;4.05;;;2.90;;
8716;SDS011;4395;48.554;8.820;2022-11-15T02:11:04;3.38;;;2.95;;
8716;SDS011;4395;48.554;8.820;2022-11-15T02:13:29;2.85;;;2.30;;
8716;SDS011;4395;48.554;8.820;2022-11-15T02:15:55;4.07;;;3.00;;
8716;SDS011;4395;48.554;8.820;2022-11-15T02:18:31;3.85;;;2.60;;
8716;SDS011;4395;48.554;8.820;2022-11-15T02:24:40;4.55;;;2.92;;
8716;SDS011;4395;48.554;8.820;2022-11-15T02:30:04;4.25;;;2.78;;
8716;SDS011;4395;48.554;8.820;2022-11-15T02:32:46;2.58;;;2.38;;
8716;SDS011;4395;48.554;8.820;2022-11-15T02:35:12;3.63;;;2.42;;
8716;SDS011;4395;48.554;8.820;2022-11-15T02:37:42;3.35;;;2.13;;
8716;SDS011;4395;48.554;8.820;2022-11-15T02:40:10;2.30;;;2.10;;
8716;SDS011;4395;48.554;8.820;2022-11-15T02:42:40;2.45;;;1.95;;
8716;SDS011;4395;48.554;8.820;2022-11-15T02:45:29;3.15;;;2.20;;
8716;SDS011;4395;48.554;8.820;2022-11-15T02:47:54;4.25;;;3.10;;
8716;SDS011;4395;48.554;8.820;2022-11-15T02:50:20;4.65;;;3.65;;
8716;SDS011;4395;48.554;8.820;2022-11-15T02:52:45;4.82;;;4.03;;
8716;SDS011;4395;48.554;8.820;2022-11-15T02:57:51;2.63;;;2.08;;
8716;SDS011;4395;48.554;8.820;2022-11-15T03:00:19;3.78;;;2.40;;
8716;SDS011;4395;48.554;8.820;2022-11-15T03:02:45;5.78;;;4.88;;
8716;SDS011;4395;48.554;8.820;2022-11-15T03:05:19;6.45;;;5.00;;
8716;SDS011;4395;48.554;8.820;2022-11-15T03:07:49;4.80;;;4.18;;
8716;SDS011;4395;48.554;8.820;2022-11-15T03:10:22;5.95;;;4.30;;
8716;SDS011;4395;48.554;8.820;2022-11-15T03:12:49;4.50;;;4.10;;
8716;SDS011;4395;48.554;8.820;2022-11-15T03:15:17;4.30;;;3.58;;
8716;SDS011;4395;48.554;8.820;2022-11-15T03:17:45;3.00;;;2.65;;
8716;SDS011;4395;48.554;8.820;2022-11-15T03:20:13;3.72;;;2.40;;
8716;SDS011;4395;48.554;8.820;2022-11-15T03:22:37;3.08;;;2.50;;
8716;SDS011;4395;48.554;8.820;2022-11-15T03:25:04;2.85;;;2.38;;
8716;SDS011;4395;48.554;8.820;2022-11-15T03:27:30;2.72;;;2.30;;
8716;SDS011;4395;48.554;8.820;2022-11-15T03:29:57;2.78;;;2.50;;
8716;SDS011;4395;48.554;8.820;2022-11-15T03:32:23;3.70;;;2.75;;
8716;SDS011;4395;48.554;8.820;2022-11-15T03:34:49;3.25;;;2.65;;
8716;SDS011;4395;48.554;8.820;2022-11-15T03:37:13;3.45;;;2.90;;
8716;SDS011;4395;48.554;8.820;2022-11-15T03:39:37;5.35;;;4.85;;
8716;SDS011;4395;48.554;8.820;2022-11-15T03:42:02;16.73;;;12.23;;
8716;SDS011;4395;48.554;8.820;2022-11-15T03:44:35;19.52;;;15.02;;
8716;SDS011;4395;48.554;8.820;2022-11-15T03:47:03;6.80;;;5.40;;
8716;SDS011;4395;48.554;8.820;2022-11-15T03:49:31;6.55;;;4.18;;
8716;SDS011;4395;48.554;8.820;2022-11-15T03:51:57;4.25;;;3.83;;
8716;SDS011;4395;48.554;8.820;2022-11-15T03:54:19;7.63;;;6.50;;
8716;SDS011;4395;48.554;8.820;2022-11-15T03:56:41;10.80;;;8.05;;
8716;SDS011;4395;48.554;8.820;2022-11-15T03:59:02;10.40;;;7.63;;
8716;SDS011;4395;48.554;8.820;2022-11-15T04:01:23;8.07;;;6.50;;
8716;SDS011;4395;48.554;8.820;2022-11-15T04:03:45;6.82;;;4.10;;
8716;SDS011;4395;48.554;8.820;2022-11-15T04:06:06;3.08;;;2.85;;
8716;SDS011;4395;48.554;8.820;2022-11-15T04:08:29;6.90;;;2.92;;
8716;SDS011;4395;48.554;8.820;2022-11-15T04:10:51;3.75;;;2.70;;
8716;SDS011;4395;48.554;8.820;2022-11-15T04:13:13;3.80;;;2.58;;
8716;SDS011;4395;48.554;8.820;2022-11-15T04:15:34;3.42;;;2.40;;
8716;SDS011;4395;48.554;8.820;2022-11-15T04:17:56;3.17;;;2.88;;
8716;SDS011;4395;48.554;8.820;2022-11-15T04:20:18;2.97;;;2.45;;
8716;SDS011;4395;48.554;8.820;2022-11-15T04:23:00;9.63;;;8.52;;
8716;SDS011;4395;48.554;8.820;2022-11-15T04:25:41;13.45;;;9.05;;
8716;SDS011;4395;48.554;8.820;2022-11-15T04:28:04;11.25;;;8.10;;
8716;SDS011;4395;48.554;8.820;2022-11-15T04:30:25;10.10;;;8.23;;
8716;SDS011;4395;48.554;8.820;2022-11-15T04:32:47;5.32;;;3.72;;
8716;SDS011;4395;48.554;8.820;2022-11-15T04:35:08;3.22;;;2.92;;
8716;SDS011;4395;48.554;8.820;2022-11-15T04:37:30;8.82;;;7.93;;
8716;SDS011;4395;48.554;8.820;2022-11-15T04:39:50;9.57;;;7.88;;
8716;SDS011;4395;48.554;8.820;2022-11-15T04:42:12;10.98;;;8.80;;
8716;SDS011;4395;48.554;8.820;2022-11-15T04:44:34;6.95;;;4.40;;
8716;SDS011;4395;48.554;8.820;2022-11-15T04:46:56;8.65;;;5.25;;
8716;SDS011;4395;48.554;8.820;2022-11-15T04:49:17;6.00;;;3.30;;
8716;SDS011;4395;48.554;8.820;2022-11-15T04:51:38;3.60;;;3.17;;
8716;SDS011;4395;48.554;8.820;2022-11-15T04:54:00;3.42;;;2.80;;
8716;SDS011;4395;48.554;8.820;2022-11-15T04:56:21;4.22;;;2.78;;
8716;SDS011;4395;48.554;8.820;2022-11-15T04:58:43;3.88;;;2.63;;
8716;SDS011;4395;48.554;8.820;2022-11-15T05:01:06;3.13;;;2.83;;
8716;SDS011;4395;48.554;8.820;2022-11-15T05:03:28;3.75;;;2.92;;
8716;SDS011;4395;48.554;8.820;2022-11-15T05:06:07;4.55;;;2.85;;
8716;SDS011;4395;48.554;8.820;2022-11-15T05:08:29;2.95;;;2.60;;
8716;SDS011;4395;48.554;8.820;2022-11-15T05:10:50;3.97;;;3.58;;
8716;SDS011;4395;48.554;8.820;2022-11-15T05:13:11;4.20;;;3.90;;
8716;SDS011;4395;48.554;8.820;2022-11-15T05:15:34;4.70;;;4.25;;
8716;SDS011;4395;48.554;8.820;2022-11-15T05:17:57;7.13;;;3.88;;
8716;SDS011;4395;48.554;8.820;2022-11-15T05:20:19;4.70;;;3.42;;
8716;SDS011;4395;48.554;8.820;2022-11-15T05:22:41;7.18;;;4.97;;
8716;SDS011;4395;48.554;8.820;2022-11-15T05:25:02;4.78;;;3.05;;
8716;SDS011;4395;48.554;8.820;2022-11-15T05:27:24;4.40;;;3.58;;
8716;SDS011;4395;48.554;8.820;2022-11-15T05:29:45;4.10;;;3.58;;
8716;SDS011;4395;48.554;8.820;2022-11-15T05:32:08;3.65;;;3.22;;
8716;SDS011;4395;48.554;8.820;2022-11-15T05:34:30;6.28;;;5.47;;
8716;SDS011;4395;48.554;8.820;2022-11-15T05:36:52;7.63;;;6.82;;
8716;SDS011;4395;48.554;8.820;2022-11-15T05:39:14;8.55;;;7.65;;
8716;SDS011;4395;48.554;8.820;2022-11-15T05:41:37;11.07;;;9.98;;
8716;SDS011;4395;48.554;8.820;2022-11-15T05:44:03;5.70;;;5.20;;
8716;SDS011;4395;48.554;8.820;2022-11-15T05:46:28;4.30;;;3.90;;
8716;SDS011;4395;48.554;8.820;2022-11-15T05:48:52;6.97;;;5.35;;
8716;SDS011;4395;48.554;8.820;2022-11-15T05:51:15;7.65;;;5.60;;
8716;SDS011;4395;48.554;8.820;2022-11-15T05:53:40;7.38;;;4.90;;
8716;SDS011;4395;48.554;8.820;2022-11-15T05:56:02;5.78;;;4.40;;
8716;SDS011;4395;48.554;8.820;2022-11-15T05:58:25;6.47;;;4.88;;
8716;SDS011;4395;48.554;8.820;2022-11-15T06:00:47;5.78;;;4.72;;
8716;SDS011;4395;48.554;8.820;2022-11-15T06:03:08;5.53;;;4.90;;
8716;SDS011;4395;48.554;8.820;2022-11-15T06:05:32;6.82;;;5.05;;
8716;SDS011;4395;48.554;8.820;2022-11-15T06:07:56;5.80;;;4.50;;
8716;SDS011;4395;48.554;8.820;2022-11-15T06:10:18;7.88;;;4.50;;
8716;SDS011;4395;48.554;8.820;2022-11-15T06:12:39;6.65;;;4.68;;
8716;SDS011;4395;48.554;8.820;2022-11-15T06:15:01;5.97;;;5.18;;
8716;SDS011;4395;48.554;8.820;2022-11-15T06:17:23;5.13;;;4.05;;
8716;SDS011;4395;48.554;8.820;2022-11-15T06:19:44;5.85;;;5.18;;
8716;SDS011;4395;48.554;8.820;2022-11-15T06:22:07;6.30;;;3.97;;
8716;SDS011;4395;48.554;8.820;2022-11-15T06:24:29;4.53;;;3.78;;
8716;SDS011;4395;48.554;8.820;2022-11-15T06:26:50;3.22;;;2.92;;
8716;SDS011;4395;48.554;8.820;2022-11-15T06:29:12;3.75;;;3.35;;
8716;SDS011;4395;48.554;8.820;2022-11-15T06:31:33;3.65;;;3.33;;
8716;SDS011;4395;48.554;8.820;2022-11-15T06:33:55;5.22;;;4.28;;
8716;SDS011;4395;48.554;8.820;2022-11-15T06:36:16;5.55;;;4.75;;
8716;SDS011;4395;48.554;8.820;2022-11-15T06:38:39;5.30;;;4.80;;
8716;SDS011;4395;48.554;8.820;2022-11-15T06:41:01;5.75;;;4.53;;
8716;SDS011;4395;48.554;8.820;2022-11-15T06:43:23;10.93;;;4.60;;
8716;SDS011;4395;48.554;8.820;2022-11-15T06:45:44;12.77;;;4.60;;
8716;SDS011;4395;48.554;8.820;2022-11-15T06:48:05;8.45;;;4.57;;
8716;SDS011;4395;48.554;8.820;2022-11-15T06:50:27;8.80;;;4.57;;
8716;SDS011;4395;48.554;8.820;2022-11-15T06:52:48;10.65;;;3.92;;
8716;SDS011;4395;48.554;8.820;2022-11-15T06:55:11;6.85;;;4.30;;
8716;SDS011;4395;48.554;8.820;2022-11-15T06:57:33;8.80;;;6.43;;
8716;SDS011;4395;48.554;8.820;2022-11-15T06:59:54;10.68;;;8.07;;
8716;SDS011;4395;48.554;8.820;2022-11-15T07:02:15;14.57;;;11.82;;
8716;SDS011;4395;48.554;8.820;2022-11-15T07:04:36;20.83;;;14.82;;
8716;SDS011;4395;48.554;8.820;2022-11-15T07:06:58;13.23;;;10.45;;
8716;SDS011;4395;48.554;8.820;2022-11-15T07:09:19;11.07;;;9.32;;
8716;SDS011;4395;48.554;8.820;2022-11-15T07:11:42;9.23;;;7.65;;
8716;SDS011;4395;48.554;8.820;2022-11-15T07:14:04;9.68;;;6.72;;
8716;SDS011;4395;48.554;8.820;2022-11-15T07:16:25;5.97;;;4.85;;
8716;SDS011;4395;48.554;8.820;2022-11-15T07:18:46;6.53;;;5.10;;
8716;SDS011;4395;48.554;8.820;2022-11-15T07:21:09;4.88;;;4.40;;
8716;SDS011;4395;48.554;8.820;2022-11-15T07:23:32;5.63;;;5.03;;
8716;SDS011;4395;48.554;8.820;2022-11-15T07:25:55;6.95;;;5.43;;
8716;SDS011;4395;48.554;8.820;2022-11-15T07:28:19;7.40;;;5.20;;
8716;SDS011;4395;48.554;8.820;2022-11-15T07:30:41;9.27;;;4.80;;
8716;SDS011;4395;48.554;8.820;2022-11-15T07:33:04;5.90;;;5.05;;
8716;SDS011;4395;48.554;8.820;2022-11-15T07:35:26;7.55;;;4.65;;
8716;SDS011;4395;48.554;8.820;2022-11-15T07:37:52;12.63;;;10.40;;
8716;SDS011;4395;48.554;8.820;2022-11-15T07:40:15;17.25;;;11.20;;
8716;SDS011;4395;48.554;8.820;2022-11-15T07:42:37;12.02;;;8.68;;
8716;SDS011;4395;48.554;8.820;2022-11-15T07:45:18;8.63;;;6.05;;
8716;SDS011;4395;48.554;8.820;2022-11-15T07:47:40;10.90;;;6.30;;
8716;SDS011;4395;48.554;8.820;2022-11-15T07:50:01;10.77;;;7.15;;
8716;SDS011;4395;48.554;8.820;2022-11-15T07:52:22;8.32;;;5.95;;
8716;SDS011;4395;48.554;8.820;2022-11-15T07:54:44;10.82;;;6.75;;
8716;SDS011;4395;48.554;8.820;2022-11-15T07:57:05;8.85;;;6.18;;
8716;SDS011;4395;48.554;8.820;2022-11-15T07:59:28;7.20;;;5.10;;
8716;SDS011;4395;48.554;8.820;2022-11-15T08:01:51;7.97;;;5.75;;
8716;SDS011;4395;48.554;8.820;2022-11-15T08:04:13;10.50;;;7.75;;
8716;SDS011;4395;48.554;8.820;2022-11-15T08:06:35;8.43;;;5.13;;
8716;SDS011;4395;48.554;8.820;2022-11-15T08:08:56;5.95;;;4.75;;
8716;SDS011;4395;48.554;8.820;2022-11-15T08:11:18;6.20;;;4.78;;
8716;SDS011;4395;48.554;8.820;2022-11-15T08:13:39;6.35;;;5.05;;
8716;SDS011;4395;48.554;8.820;2022-11-15T08:16:01;6.03;;;4.80;;
8716;SDS011;4395;48.554;8.820;2022-11-15T08:18:26;9.07;;;4.75;;
8716;SDS011;4395;48.554;8.820;2022-11-15T08:20:47;5.78;;;4.70;;
8716;SDS011;4395;48.554;8.820;2022-11-15T08:23:09;7.00;;;5.07;;
8716;SDS011;4395;48.554;8.820;2022-11-15T08:25:32;4.55;;;4.13;;
8716;SDS011;4395;48.554;8.820;2022-11-15T08:27:55;5.97;;;4.40;;
8716;SDS011;4395;48.554;8.820;2022-11-15T08:30:17;7.43;;;3.58;;
8716;SDS011;4395;48.554;8.820;2022-11-15T08:32:39;10.60;;;5.78;;
8716;SDS011;4395;48.554;8.820;2022-11-15T08:35:02;5.45;;;3.80;;
8716;SDS011;4395;48.554;8.820;2022-11-15T08:37:24;5.10;;;3.63;;
8716;SDS011;4395;48.554;8.820;2022-11-15T08:39:45;5.13;;;4.40;;
8716;SDS011;4395;48.554;8.820;2022-11-15T08:42:06;6.15;;;4.63;;
8716;SDS011;4395;48.554;8.820;2022-11-15T08:44:28;4.78;;;3.35;;
8716;SDS011;4395;48.554;8.820;2022-11-15T08:46:49;4.38;;;3.47;;
8716;SDS011;4395;48.554;8.820;2022-11-15T08:49:11;7.55;;;4.93;;
8716;SDS011;4395;48.554;8.820;2022-11-15T08:51:33;8.07;;;5.05;;
8716;SDS011;4395;48.554;8.820;2022-11-15T08:53:55;16.20;;;8.95;;
8716;SDS011;4395;48.554;8.820;2022-11-15T08:56:16;27.42;;;16.52;;
8716;SDS011;4395;48.554;8.820;2022-11-15T08:58:37;22.67;;;13.98;;
8716;SDS011;4395;48.554;8.820;2022-11-15T09:00:59;7.75;;;5.93;;
8716;SDS011;4395;48.554;8.820;2022-11-15T09:03:20;5.13;;;3.78;;
8716;SDS011;4395;48.554;8.820;2022-11-15T09:05:42;8.60;;;4.10;;
8716;SDS011;4395;48.554;8.820;2022-11-15T09:08:04;6.97;;;4.10;;
8716;SDS011;4395;48.554;8.820;2022-11-15T09:10:46;5.38;;;4.53;;
8716;SDS011;4395;48.554;8.820;2022-11-15T09:13:07;4.80;;;3.50;;
8716;SDS011;4395;48.554;8.820;2022-11-15T09:15:28;4.35;;;3.47;;
8716;SDS011;4395;48.554;8.820;2022-11-15T09:17:49;6.07;;;3.65;;
8716;SDS011;4395;48.554;8.820;2022-11-15T09:20:11;4.60;;;3.60;;
8716;SDS011;4395;48.554;8.820;2022-11-15T09:22:32;6.78;;;3.20;;
8716;SDS011;4395;48.554;8.820;2022-11-15T09:24:55;4.33;;;2.80;;
8716;SDS011;4395;48.554;8.820;2022-11-15T09:27:17;3.50;;;2.72;;
8716;SDS011;4395;48.554;8.820;2022-11-15T09:29:38;3.57;;;2.80;;
8716;SDS011;4395;48.554;8.820;2022-11-15T09:31:59;4.90;;;3.03;;
8716;SDS011;4395;48.554;8.820;2022-11-15T09:34:21;6.88;;;3.65;;
8716;SDS011;4395;48.554;8.820;2022-11-15T09:36:42;4.03;;;2.80;;
8716;SDS011;4395;48.554;8.820;2022-11-15T09:39:04;3.73;;;3.30;;
8716;SDS011;4395;48.554;8.820;2022-11-15T09:41:32;4.07;;;3.13;;
8716;SDS011;4395;48.554;8.820;2022-11-15T09:44:20;3.43;;;3.10;;
8716;SDS011;4395;48.554;8.820;2022-11-15T09:46:52;4.63;;;2.77;;
8716;SDS011;4395;48.554;8.820;2022-11-15T09:49:32;3.80;;;2.47;;
8716;SDS011;4395;48.554;8.820;2022-11-15T09:51:49;6.07;;;2.67;;
8716;SDS011;4395;48.554;8.820;2022-11-15T09:53:56;3.60;;;2.60;;
8716;SDS011;4395;48.554;8.820;2022-11-15T09:56:24;4.50;;;2.37;;
8716;SDS011;4395;48.554;8.820;2022-11-15T09:58:33;5.27;;;2.40;;
8716;SDS011;4395;48.554;8.820;2022-11-15T10:00:42;4.17;;;2.30;;
8716;SDS011;4395;48.554;8.820;2022-11-15T10:02:55;2.63;;;2.40;;
8716;SDS011;4395;48.554;8.820;2022-11-15T10:05:06;3.93;;;2.50;;
8716;SDS011;4395;48.554;8.820;2022-11-15T10:07:13;5.17;;;2.40;;
8716;SDS011;4395;48.554;8.820;2022-11-15T10:09:21;2.73;;;2.37;;
8716;SDS011;4395;48.554;8.820;2022-11-15T10:11:29;3.53;;;2.33;;
8716;SDS011;4395;48.554;8.820;2022-11-15T10:13:41;4.33;;;2.07;;
8716;SDS011;4395;48.554;8.820;2022-11-15T10:15:47;3.70;;;2.00;;
8716;SDS011;4395;48.554;8.820;2022-11-15T10:18:05;2.87;;;2.30;;
8716;SDS011;4395;48.554;8.820;2022-11-15T10:20:13;3.60;;;2.30;;
8716;SDS011;4395;48.554;8.820;2022-11-15T10:22:30;3.13;;;2.20;;
8716;SDS011;4395;48.554;8.820;2022-11-15T10:24:41;3.33;;;3.03;;
8716;SDS011;4395;48.554;8.820;2022-11-15T10:26:45;5.60;;;2.80;;
8716;SDS011;4395;48.554;8.820;2022-11-15T10:28:50;2.87;;;2.47;;
8716;SDS011;4395;48.554;8.820;2022-11-15T10:30:54;3.93;;;3.23;;
8716;SDS011;4395;48.554;8.820;2022-11-15T10:33:21;4.60;;;3.23;;
8716;SDS011;4395;48.554;8.820;2022-11-15T10:35:32;4.67;;;4.17;;
8716;SDS011;4395;48.554;8.820;2022-11-15T10:37:35;5.30;;;3.70;;
8716;SDS011;4395;48.554;8.820;2022-11-15T10:39:38;4.10;;;3.80;;
8716;SDS011;4395;48.554;8.820;2022-11-15T10:41:41;2.33;;;2.10;;
8716;SDS011;4395;48.554;8.820;2022-11-15T10:43:45;3.17;;;2.83;;
8716;SDS011;4395;48.554;8.820;2022-11-15T10:46:14;7.47;;;2.50;;
8716;SDS011;4395;48.554;8.820;2022-11-15T10:48:42;3.53;;;2.30;;
8716;SDS011;4395;48.554;8.820;2022-11-15T10:50:46;2.93;;;1.93;;
8716;SDS011;4395;48.554;8.820;2022-11-15T10:52:51;2.47;;;2.10;;
8716;SDS011;4395;48.554;8.820;2022-11-15T10:54:55;3.00;;;2.70;;
8716;SDS011;4395;48.554;8.820;2022-11-15T10:57:04;7.03;;;2.73;;
8716;SDS011;4395;48.554;8.820;2022-11-15T10:59:23;3.13;;;2.40;;
8716;SDS011;4395;48.554;8.820;2022-11-15T11:01:30;4.77;;;2.87;;
8716;SDS011;4395;48.554;8.820;2022-11-15T11:03:34;17.33;;;4.80;;
8716;SDS011;4395;48.554;8.820;2022-11-15T11:05:39;7.30;;;2.83;;
8716;SDS011;4395;48.554;8.820;2022-11-15T11:07:45;5.37;;;3.30;;
8716;SDS011;4395;48.554;8.820;2022-11-15T11:10:00;2.90;;;2.60;;
8716;SDS011;4395;48.554;8.820;2022-11-15T11:12:26;5.80;;;3.00;;
8716;SDS011;4395;48.554;8.820;2022-11-15T11:14:33;4.10;;;2.80;;
8716;SDS011;4395;48.554;8.820;2022-11-15T11:16:42;3.80;;;2.50;;
8716;SDS011;4395;48.554;8.820;2022-11-15T11:18:54;4.57;;;2.80;;
8716;SDS011;4395;48.554;8.820;2022-11-15T11:21:07;6.93;;;2.73;;
8716;SDS011;4395;48.554;8.820;2022-11-15T11:23:17;4.63;;;3.03;;
8716;SDS011;4395;48.554;8.820;2022-11-15T11:25:33;5.68;;;2.90;;
8716;SDS011;4395;48.554;8.820;2022-11-15T11:27:41;5.50;;;3.00;;
8716;SDS011;4395;48.554;8.820;2022-11-15T11:29:54;3.40;;;2.90;;
8716;SDS011;4395;48.554;8.820;2022-11-15T11:32:22;3.10;;;2.63;;
8716;SDS011;4395;48.554;8.820;2022-11-15T11:34:38;7.17;;;2.97;;
8716;SDS011;4395;48.554;8.820;2022-11-15T11:36:53;7.13;;;3.10;;
8716;SDS011;4395;48.554;8.820;2022-11-15T11:39:13;6.67;;;2.90;;
8716;SDS011;4395;48.554;8.820;2022-11-15T11:41:42;6.87;;;3.47;;
8716;SDS011;4395;48.554;8.820;2022-11-15T11:43:54;5.97;;;3.30;;
8716;SDS011;4395;48.554;8.820;2022-11-15T11:46:12;4.47;;;3.27;;
8716;SDS011;4395;48.554;8.820;2022-11-15T11:48:28;4.73;;;3.30;;
8716;SDS011;4395;48.554;8.820;2022-11-15T11:50:42;5.27;;;3.10;;
8716;SDS011;4395;48.554;8.820;2022-11-15T11:52:52;2.80;;;2.60;;
8716;SDS011;4395;48.554;8.820;2022-11-15T11:55:05;6.47;;;3.13;;
8716;SDS011;4395;48.554;8.820;2022-11-15T11:57:19;8.10;;;3.10;;
8716;SDS011;4395;48.554;8.820;2022-11-15T11:59:32;5.23;;;2.77;;
8716;SDS011;4395;48.554;8.820;2022-11-15T12:01:40;4.43;;;2.63;;
8716;SDS011;4395;48.554;8.820;2022-11-15T12:03:47;5.37;;;3.37;;
8716;SDS011;4395;48.554;8.820;2022-11-15T12:05:54;8.40;;;2.90;;
8716;SDS011;4395;48.554;8.820;2022-11-15T12:08:01;9.90;;;3.27;;
8716;SDS011;4395;48.554;8.820;2022-11-15T12:10:17;4.77;;;3.00;;
8716;SDS011;4395;48.554;8.820;2022-11-15T12:12:27;4.17;;;3.17;;
8716;SDS011;4395;48.554;8.820;2022-11-15T12:14:38;8.33;;;3.70;;
8716;SDS011;4395;48.554;8.820;2022-11-15T12:16:45;3.43;;;2.70;;
8716;SDS011;4395;48.554;8.820;2022-11-15T12:18:50;2.90;;;2.60;;
8716;SDS011;4395;48.554;8.820;2022-11-15T12:20:56;4.73;;;3.00;;
8716;SDS011;4395;48.554;8.820;2022-11-15T12:23:04;6.80;;;2.97;;
8716;SDS011;4395;48.554;8.820;2022-11-15T12:25:14;3.53;;;2.97;;
8716;SDS011;4395;48.554;8.820;2022-11-15T12:27:22;5.93;;;3.07;;
8716;SDS011;4395;48.554;8.820;2022-11-15T12:29:35;4.47;;;2.80;;
8716;SDS011;4395;48.554;8.820;2022-11-15T12:31:40;12.50;;;3.50;;
8716;SDS011;4395;48.554;8.820;2022-11-15T12:33:48;6.97;;;3.00;;
8716;SDS011;4395;48.554;8.820;2022-11-15T12:35:58;3.63;;;3.00;;
8716;SDS011;4395;48.554;8.820;2022-11-15T12:38:02;11.70;;;3.80;;
8716;SDS011;4395;48.554;8.820;2022-11-15T12:42:35;4.53;;;3.10;;
8716;SDS011;4395;48.554;8.820;2022-11-15T12:44:58;3.60;;;3.00;;
8716;SDS011;4395;48.554;8.820;2022-11-15T12:47:03;4.33;;;2.80;;
8716;SDS011;4395;48.554;8.820;2022-11-15T12:49:44;6.17;;;2.70;;
8716;SDS011;4395;48.554;8.820;2022-11-15T12:56:59;4.03;;;3.60;;
8716;SDS011;4395;48.554;8.820;2022-11-15T13:01:56;6.00;;;3.20;;
8716;SDS011;4395;48.554;8.820;2022-11-15T13:04:13;6.20;;;3.27;;
8716;SDS011;4395;48.554;8.820;2022-11-15T13:06:36;5.63;;;3.03;;
8716;SDS011;4395;48.554;8.820;2022-11-15T13:08:43;5.67;;;3.00;;
8716;SDS011;4395;48.554;8.820;2022-11-15T13:10:50;4.27;;;2.87;;
8716;SDS011;4395;48.554;8.820;2022-11-15T13:12:55;3.60;;;3.20;;
8716;SDS011;4395;48.554;8.820;2022-11-15T13:14:59;6.20;;;4.40;;
8716;SDS011;4395;48.554;8.820;2022-11-15T13:17:03;7.50;;;3.60;;
8716;SDS011;4395;48.554;8.820;2022-11-15T13:19:36;9.47;;;6.50;;
8716;SDS011;4395;48.554;8.820;2022-11-15T13:21:47;6.90;;;5.23;;
8716;SDS011;4395;48.554;8.820;2022-11-15T13:24:20;6.93;;;5.33;;
8716;SDS011;4395;48.554;8.820;2022-11-15T13:26:23;16.30;;;12.57;;
8716;SDS011;4395;48.554;8.820;2022-11-15T13:28:31;16.83;;;10.23;;
8716;SDS011;4395;48.554;8.820;2022-11-15T13:30:36;13.37;;;6.23;;
8716;SDS011;4395;48.554;8.820;2022-11-15T13:32:40;12.60;;;9.80;;
8716;SDS011;4395;48.554;8.820;2022-11-15T13:34:43;12.70;;;7.77;;
8716;SDS011;4395;48.554;8.820;2022-11-15T13:36:54;9.53;;;8.50;;
8716;SDS011;4395;48.554;8.820;2022-11-15T13:38:59;8.03;;;7.27;;
8716;SDS011;4395;48.554;8.820;2022-11-15T13:41:11;10.30;;;5.60;;
8716;SDS011;4395;48.554;8.820;2022-11-15T13:43:25;9.40;;;4.50;;
8716;SDS011;4395;48.554;8.820;2022-11-15T13:45:31;6.73;;;4.67;;
8716;SDS011;4395;48.554;8.820;2022-11-15T13:47:34;8.50;;;4.60;;
8716;SDS011;4395;48.554;8.820;2022-11-15T13:49:37;12.97;;;4.80;;
8716;SDS011;4395;48.554;8.820;2022-11-15T13:51:42;9.97;;;4.77;;
8716;SDS011;4395;48.554;8.820;2022-11-15T13:53:50;7.37;;;5.10;;
8716;SDS011;4395;48.554;8.820;2022-11-15T13:55:57;6.10;;;4.80;;
8716;SDS011;4395;48.554;8.820;2022-11-15T13:58:01;6.73;;;4.93;;
8716;SDS011;4395;48.554;8.820;2022-11-15T14:00:23;9.83;;;5.00;;
8716;SDS011;4395;48.554;8.820;2022-11-15T14:02:29;6.00;;;4.90;;
8716;SDS011;4395;48.554;8.820;2022-11-15T14:04:34;7.80;;;6.37;;
8716;SDS011;4395;48.554;8.820;2022-11-15T14:06:45;7.67;;;6.93;;
8716;SDS011;4395;48.554;8.820;2022-11-15T14:09:03;10.00;;;5.90;;
8716;SDS011;4395;48.554;8.820;2022-11-15T14:11:25;8.50;;;5.83;;
8716;SDS011;4395;48.554;8.820;2022-11-15T14:13:30;10.40;;;6.20;;
8716;SDS011;4395;48.554;8.820;2022-11-15T14:15:34;8.30;;;7.47;;
8716;SDS011;4395;48.554;8.820;2022-11-15T14:17:38;9.10;;;7.27;;
8716;SDS011;4395;48.554;8.820;2022-11-15T14:19:50;12.43;;;6.80;;
8716;SDS011;4395;48.554;8.820;2022-11-15T14:24:32;9.60;;;6.70;;
8716;SDS011;4395;48.554;8.820;2022-11-15T14:26:35;13.50;;;6.70;;
8716;SDS011;4395;48.554;8.820;2022-11-15T14:28:37;8.63;;;6.13;;
8716;SDS011;4395;48.554;8.820;2022-11-15T14:30:41;10.47;;;6.77;;
8716;SDS011;4395;48.554;8.820;2022-11-15T14:32:48;11.23;;;6.67;;
8716;SDS011;4395;48.554;8.820;2022-11-15T14:34:53;10.73;;;6.63;;
8716;SDS011;4395;48.554;8.820;2022-11-15T14:36:58;7.27;;;6.50;;
8716;SDS011;4395;48.554;8.820;2022-11-15T14:39:01;8.73;;;6.10;;
8716;SDS011;4395;48.554;8.820;2022-11-15T14:41:09;7.77;;;6.70;;
8716;SDS011;4395;48.554;8.820;2022-11-15T14:43:19;8.60;;;7.27;;